Carroll View Terrace, OH

1:13 AM EST on December 06, 2016 (GMT -0500)
OHDOT | | Change Station

Elev 1119 ft 40.59 °N, 81.08 °W | Updated 4 hours ago

Clear
Clear
33.0 °F
Feels Like 33.0 °F
N
0.0
Wind Variable Wind from ENE
Gusts 1.0 mph

Today
High -- | Low -- °F
--% Chance of Precip.
Yesterday
High -- | Low -- °F
Precip. -- in
Pressure 30.06 in
Visibility 10.0 miles
Clouds Clear
Dew Point 27.0 °F
Humidity 78%
Rainfall in
Snow Depth Not available.
7:33 AM 4:57 PM
Waxing Crescent, 38% visible
METAR KPHD 060553Z AUTO 13003KT 10SM CLR M02/M03 A3003 RMK AO2 SLP178 I1000 I6001 T10221033 10000 21033 58015
Pressure 30.06 in
Visibility 10.0 miles
Clouds Clear
Dew Point 27.0 °F
Humidity 78%
Rainfall in
Snow Depth Not available.
7:33 AM 4:57 PM
Waxing Crescent, 38% visible
METAR KPHD 060553Z AUTO 13003KT 10SM CLR M02/M03 A3003 RMK AO2 SLP178 I1000 I6001 T10221033 10000 21033 58015

10-Day Weather Forecast

Almanac

Astronomy

Dec. 06, 2016 Rise Set
Actual Time
Civil Twilight
Nautical Twilight
Astronomical Twilight
Moon
Length of Visible Light
Length of Day
Tomorrow will be .
, % of the Moon is Illuminated

Today's Extremes

State Highs State Lows

Community

WunderPhotos

Upload Photos

1,955,932 photos uploaded!

WunderBlog® & News

Nearby

Air Quality

  Air Quality AQ Index Pollutant
Not available.

Snow Depth

Station Depth Elevation

Earthquake Activity

City Distance Mag. Time & Date
Minimum magnitude displayed is 2.5.

Coastal Water Temperatures

Place Temperature

Stations

Nearby Weather Stations

Station Location Temp. Windchill Dew Point Humidity Wind Precip. Elev Updated Type
                   

Watches & Warnings

There are currently no watches in effect.